Time;durP1;ratioP1;P1;durP2;ratioP2;P2;SDS_P1;SDS_P2;PMS_P1;PMS_P2;Temp;Humidity;BMP_temperature;BMP_pressure;BME280_temperature;BME280_humidity;BME280_pressure;Samples;Min_cycle;Max_cycle;Signal;HPM_P1;HPM_P2
2023/06/29 00:01:24;;;;;;;19.90;10.82;;;25.10;93.60;;;;;;5091359;28;20062;-68
2023/06/29 00:04:29;;;;;;;20.27;10.88;;;25.20;93.40;;;;;;5090478;28;20047;-68
2023/06/29 00:07:33;;;;;;;19.15;10.70;;;25.00;93.40;;;;;;5091424;28;20051;-68
2023/06/29 00:10:38;;;;;;;25.00;11.63;;;25.00;93.30;;;;;;5091214;28;20043;-68
2023/06/29 00:13:43;;;;;;;19.55;11.90;;;25.10;93.30;;;;;;5090883;28;20035;-68
2023/06/29 00:16:50;;;;;;;16.90;11.05;;;25.10;93.20;;;;;;5090315;28;20043;-68
2023/06/29 00:19:54;;;;;;;26.00;13.32;;;25.20;93.20;;;;;;5090862;28;20417;-68
2023/06/29 00:22:59;;;;;;;18.75;12.48;;;25.10;93.10;;;;;;5090914;28;20047;-68
2023/06/29 00:26:03;;;;;;;21.48;13.32;;;24.90;93.40;;;;;;5090872;28;20059;-68
2023/06/29 00:29:07;;;;;;;20.95;13.10;;;24.90;93.40;;;;;;5090977;28;20043;-68
2023/06/29 00:32:13;;;;;;;20.08;13.52;;;24.80;93.40;;;;;;5093736;28;20399;-68
2023/06/29 00:35:17;;;;;;;20.00;12.60;;;24.80;93.40;;;;;;5093900;28;20039;-68
2023/06/29 00:38:20;;;;;;;20.15;12.13;;;24.60;93.50;;;;;;5094499;28;20051;-68
2023/06/29 00:41:24;;;;;;;19.20;11.82;;;24.50;93.80;;;;;;5094241;28;20050;-68
2023/06/29 00:44:29;;;;;;;13.55;9.93;;;24.50;93.50;;;;;;5093804;28;20051;-68
2023/06/29 00:47:33;;;;;;;22.38;11.20;;;24.50;93.10;;;;;;5094873;28;20035;-68
2023/06/29 00:50:38;;;;;;;23.38;10.57;;;24.60;93.10;;;;;;5093983;28;20055;-68
2023/06/29 00:53:43;;;;;;;15.50;9.75;;;24.50;92.90;;;;;;5094692;28;20043;-68
2023/06/29 00:56:48;;;;;;;13.45;9.68;;;24.50;92.80;;;;;;5094572;28;20048;-68
2023/06/29 00:59:52;;;;;;;20.58;10.52;;;24.50;92.90;;;;;;5093531;28;20055;-68
2023/06/29 01:02:56;;;;;;;14.55;10.23;;;24.50;92.70;;;;;;5093282;28;20047;-68
2023/06/29 01:06:06;;;;;;;18.05;9.73;;;24.40;92.80;;;;;;5094010;28;20043;-68
2023/06/29 01:09:11;;;;;;;13.27;9.02;;;24.50;92.70;;;;;;5094300;28;20047;-68
2023/06/29 01:12:16;;;;;;;17.30;9.77;;;24.50;92.80;;;;;;5094257;28;20040;-68
2023/06/29 01:15:22;;;;;;;13.68;9.95;;;24.40;92.80;;;;;;5094266;28;20063;-68
2023/06/29 01:18:31;;;;;;;12.63;9.15;;;24.50;92.80;;;;;;5093327;28;20039;-68
2023/06/29 01:21:46;;;;;;;14.38;9.35;;;24.40;92.90;;;;;;5094036;28;20368;-68
2023/06/29 01:24:51;;;;;;;15.07;10.77;;;24.40;93.00;;;;;;5093707;28;20494;-67
2023/06/29 01:27:55;;;;;;;20.33;10.60;;;24.30;92.90;;;;;;5093588;28;20534;-68
2023/06/29 01:31:02;;;;;;;16.20;10.63;;;24.10;93.60;;;;;;5093795;28;20495;-68
2023/06/29 01:34:06;;;;;;;18.65;10.60;;;24.10;93.50;;;;;;5092992;28;20043;-68
2023/06/29 01:37:35;;;;;;;18.00;10.27;;;23.90;94.00;;;;;;5093466;28;20046;-68
2023/06/29 01:40:43;;;;;;;19.05;10.52;;;23.90;94.10;;;;;;5092612;28;20051;-68
2023/06/29 01:43:48;;;;;;;21.23;10.82;;;23.90;94.20;;;;;;5092394;28;20063;-68
2023/06/29 01:46:53;;;;;;;16.35;11.90;;;24.00;94.00;;;;;;5092626;28;20047;-68
2023/06/29 01:49:59;;;;;;;16.35;11.18;;;24.10;93.80;;;;;;5093477;28;20051;-68
2023/06/29 01:53:03;;;;;;;21.52;11.95;;;23.90;94.00;;;;;;5093639;28;20043;-67
2023/06/29 01:56:07;;;;;;;21.20;11.57;;;23.90;94.30;;;;;;5092697;28;20055;-68
2023/06/29 01:59:11;;;;;;;16.27;11.45;;;24.00;94.10;;;;;;5092218;28;20502;-68
2023/06/29 02:02:15;;;;;;;16.35;10.77;;;24.10;94.00;;;;;;5092349;28;20403;-68
2023/06/29 02:05:20;;;;;;;21.27;10.98;;;24.00;94.20;;;;;;5093006;28;20396;-68
2023/06/29 02:08:24;;;;;;;20.50;10.98;;;24.00;94.10;;;;;;5092916;28;20039;-69
2023/06/29 02:11:28;;;;;;;17.38;11.15;;;24.00;94.10;;;;;;5092938;28;20043;-68
2023/06/29 02:14:32;;;;;;;17.90;11.90;;;24.00;94.00;;;;;;5092367;28;20110;-67
2023/06/29 02:17:37;;;;;;;16.73;11.20;;;23.90;94.20;;;;;;5092016;28;20047;-68
2023/06/29 02:20:40;;;;;;;18.05;11.32;;;24.00;94.10;;;;;;5092780;28;20387;-68
2023/06/29 02:23:44;;;;;;;14.10;10.50;;;24.00;94.10;;;;;;5091662;28;20058;-68
2023/06/29 02:26:49;;;;;;;18.77;10.82;;;24.00;94.20;;;;;;5092618;28;20043;-68
2023/06/29 02:29:52;;;;;;;19.75;11.13;;;23.90;94.40;;;;;;5091804;28;20066;-68
2023/06/29 02:32:59;;;;;;;21.85;11.73;;;23.90;94.30;;;;;;5092427;28;20039;-68
2023/06/29 02:36:04;;;;;;;16.13;11.18;;;23.90;94.30;;;;;;5092000;28;20114;-68
2023/06/29 02:39:09;;;;;;;17.27;11.57;;;23.90;94.30;;;;;;5091359;28;20051;-68
2023/06/29 02:42:13;;;;;;;16.15;10.95;;;23.90;94.10;;;;;;5091788;28;20050;-68
2023/06/29 02:45:17;;;;;;;19.52;11.05;;;23.90;94.30;;;;;;5092656;28;20059;-68
2023/06/29 02:48:21;;;;;;;15.85;11.88;;;23.80;94.00;;;;;;5091595;28;20043;-68
2023/06/29 02:51:25;;;;;;;15.52;10.95;;;23.70;94.40;;;;;;5091313;28;20511;-68
2023/06/29 02:54:34;;;;;;;17.35;11.15;;;23.60;94.30;;;;;;5090962;28;20043;-68
2023/06/29 02:57:38;;;;;;;15.80;11.18;;;23.60;94.50;;;;;;5092389;28;20047;-67
2023/06/29 03:00:42;;;;;;;17.48;12.45;;;23.50;94.60;;;;;;5091246;28;20043;-68
2023/06/29 03:03:46;;;;;;;19.95;12.88;;;23.60;94.50;;;;;;5091263;28;20051;-68
2023/06/29 03:06:49;;;;;;;17.05;11.55;;;23.50;94.30;;;;;;5091107;28;20035;-68
2023/06/29 03:09:53;;;;;;;17.35;11.07;;;23.40;94.30;;;;;;5091702;28;20549;-68
2023/06/29 03:12:57;;;;;;;17.90;11.35;;;23.30;94.40;;;;;;5092138;28;20510;-67
2023/06/29 03:16:01;;;;;;;16.70;10.63;;;23.30;94.70;;;;;;5091747;28;20039;-68
2023/06/29 03:19:05;;;;;;;12.80;10.45;;;23.30;94.40;;;;;;5091536;28;20050;-68
2023/06/29 03:22:09;;;;;;;14.32;10.25;;;23.30;94.30;;;;;;5091578;28;20043;-68
2023/06/29 03:25:12;;;;;;;13.65;9.90;;;23.50;94.20;;;;;;5091944;28;20519;-68
2023/06/29 03:28:17;;;;;;;15.07;9.63;;;23.60;94.00;;;;;;5091454;28;20035;-68
2023/06/29 03:31:20;;;;;;;15.13;9.98;;;23.60;93.90;;;;;;5092095;28;20047;-68
2023/06/29 03:34:24;;;;;;;12.82;10.00;;;23.60;93.80;;;;;;5091733;28;20067;-68
2023/06/29 03:37:28;;;;;;;12.18;9.98;;;23.70;93.80;;;;;;5091502;28;20047;-68
2023/06/29 03:40:32;;;;;;;15.70;10.30;;;23.70;93.50;;;;;;5091365;28;20055;-68
2023/06/29 03:43:36;;;;;;;16.30;11.00;;;23.60;93.60;;;;;;5091362;28;20047;-68
2023/06/29 03:46:40;;;;;;;14.75;9.75;;;23.70;93.70;;;;;;5091339;28;20043;-68
2023/06/29 03:49:45;;;;;;;23.85;11.90;;;23.70;93.70;;;;;;5091024;28;20130;-68
2023/06/29 03:52:49;;;;;;;22.00;10.85;;;23.70;93.80;;;;;;5091260;28;20102;-68
2023/06/29 03:55:53;;;;;;;15.70;10.77;;;23.80;93.40;;;;;;5091125;28;20043;-68
2023/06/29 03:58:57;;;;;;;19.17;9.82;;;23.70;93.50;;;;;;5091004;28;20054;-68
2023/06/29 04:02:01;;;;;;;14.38;10.25;;;23.60;93.60;;;;;;5090862;28;20507;-68
2023/06/29 04:05:05;;;;;;;16.25;10.50;;;23.70;93.50;;;;;;5090179;28;20499;-67
2023/06/29 04:08:09;;;;;;;16.02;10.13;;;23.70;93.40;;;;;;5090920;28;20036;-67
2023/06/29 04:11:13;;;;;;;14.32;10.70;;;23.80;93.50;;;;;;5091172;28;20392;-67
2023/06/29 04:14:17;;;;;;;14.00;10.82;;;23.80;93.40;;;;;;5090772;28;20491;-67
2023/06/29 04:17:21;;;;;;;12.00;9.48;;;23.80;93.30;;;;;;5090683;28;20063;-67
2023/06/29 04:20:26;;;;;;;21.95;10.55;;;23.90;93.20;;;;;;5090602;28;20043;-67
2023/06/29 04:23:29;;;;;;;21.08;10.00;;;24.00;93.10;;;;;;5090689;28;20063;-67
2023/06/29 04:26:33;;;;;;;11.98;9.25;;;24.00;93.20;;;;;;5090611;28;20051;-68
2023/06/29 04:29:37;;;;;;;19.08;10.27;;;24.00;93.20;;;;;;5090799;28;20047;-68
2023/06/29 04:32:41;;;;;;;22.23;10.43;;;24.10;93.10;;;;;;5090490;28;20043;-68
2023/06/29 04:35:45;;;;;;;15.68;9.63;;;24.10;93.00;;;;;;5090596;28;20047;-68
2023/06/29 04:38:50;;;;;;;16.02;10.20;;;24.20;93.10;;;;;;5090260;28;20054;-68
2023/06/29 04:42:00;;;;;;;14.65;10.05;;;24.30;92.90;;;;;;5090847;28;20043;-69
2023/06/29 04:45:05;;;;;;;20.33;10.38;;;24.40;92.80;;;;;;5090549;28;20058;-68
2023/06/29 04:48:10;;;;;;;22.55;10.15;;;24.50;92.70;;;;;;5090594;28;20507;-68
2023/06/29 04:51:17;;;;;;;25.00;10.45;;;24.60;92.30;;;;;;5090478;28;20067;-68
2023/06/29 04:54:22;;;;;;;27.55;10.02;;;24.60;92.40;;;;;;5090576;28;20047;-68
2023/06/29 04:57:25;;;;;;;22.92;10.20;;;24.50;92.40;;;;;;5090413;28;20059;-68
2023/06/29 05:00:30;;;;;;;23.15;10.00;;;24.40;92.70;;;;;;5090516;28;20035;-68
2023/06/29 05:03:35;;;;;;;13.68;9.95;;;24.50;92.60;;;;;;5090550;28;20051;-68
2023/06/29 05:06:39;;;;;;;18.38;9.35;;;24.60;92.60;;;;;;5090411;28;20039;-68
2023/06/29 05:09:43;;;;;;;24.23;10.93;;;24.80;92.30;;;;;;5090154;28;20055;-68
2023/06/29 05:12:47;;;;;;;25.08;9.90;;;24.80;92.00;;;;;;5090243;28;20043;-66
2023/06/29 05:15:51;;;;;;;21.23;9.48;;;24.90;92.00;;;;;;5090462;28;20062;-66
2023/06/29 05:18:56;;;;;;;14.77;8.15;;;24.90;91.80;;;;;;5093987;28;20043;-66
2023/06/29 05:22:00;;;;;;;22.55;9.02;;;25.00;91.40;;;;;;5094017;28;20066;-66
2023/06/29 05:25:04;;;;;;;14.77;9.00;;;25.10;91.50;;;;;;5093627;28;20055;-67
2023/06/29 05:28:08;;;;;;;20.17;8.80;;;25.30;91.40;;;;;;5093991;28;20047;-67
2023/06/29 05:31:12;;;;;;;14.75;8.43;;;25.40;91.20;;;;;;5094091;28;20051;-67
2023/06/29 05:34:16;;;;;;;9.57;6.63;;;25.60;91.10;;;;;;5093681;28;20506;-66
2023/06/29 05:37:21;;;;;;;23.10;7.40;;;25.70;90.60;;;;;;5093147;28;20046;-66
2023/06/29 05:40:25;;;;;;;12.48;7.15;;;25.90;90.40;;;;;;5092871;28;20058;-66
2023/06/29 05:43:29;;;;;;;9.00;6.57;;;25.80;89.60;;;;;;5093538;28;20055;-65
2023/06/29 05:46:36;;;;;;;14.40;6.70;;;25.90;89.70;;;;;;5093362;28;20035;-65
2023/06/29 05:49:40;;;;;;;15.20;5.75;;;26.00;88.80;;;;;;5093383;28;20399;-65
2023/06/29 05:52:43;;;;;;;14.10;5.85;;;26.00;87.10;;;;;;5093181;28;20060;-65
2023/06/29 05:55:48;;;;;;;16.73;6.07;;;25.90;86.90;;;;;;5093312;28;20047;-65
2023/06/29 05:58:53;;;;;;;10.13;5.03;;;26.10;86.90;;;;;;5093092;28;20047;-66
2023/06/29 06:01:58;;;;;;;14.68;6.05;;;26.20;85.90;;;;;;5092589;28;20047;-66
2023/06/29 06:05:02;;;;;;;20.45;5.38;;;26.30;85.00;;;;;;5092879;28;20054;-65
2023/06/29 06:08:06;;;;;;;13.90;5.25;;;26.30;84.00;;;;;;5093176;28;20051;-66
2023/06/29 06:11:10;;;;;;;13.43;5.53;;;26.40;84.10;;;;;;5092803;28;20050;-66
2023/06/29 06:14:14;;;;;;;9.05;4.90;;;26.40;83.40;;;;;;5092920;28;20129;-64
2023/06/29 06:17:18;;;;;;;8.10;5.47;;;26.50;83.40;;;;;;5092895;28;20058;-64
2023/06/29 06:20:22;;;;;;;12.30;4.70;;;26.50;83.40;;;;;;5092858;28;20502;-64
2023/06/29 06:23:26;;;;;;;15.05;5.10;;;26.60;83.30;;;;;;5092968;28;20498;-64
2023/06/29 06:26:30;;;;;;;11.50;5.55;;;26.80;83.40;;;;;;5092524;28;20090;-64
2023/06/29 06:29:34;;;;;;;10.43;5.55;;;26.90;82.70;;;;;;5091681;28;20047;-65
2023/06/29 06:32:39;;;;;;;9.48;5.30;;;26.90;81.80;;;;;;5092500;28;20043;-64
2023/06/29 06:35:44;;;;;;;8.13;4.63;;;27.00;81.90;;;;;;5092349;28;20044;-66
2023/06/29 06:38:47;;;;;;;12.80;4.97;;;27.10;81.80;;;;;;5091258;28;20059;-66
2023/06/29 06:41:51;;;;;;;20.85;5.78;;;27.30;82.30;;;;;;5092523;28;20047;-66
2023/06/29 06:44:56;;;;;;;12.48;5.75;;;27.70;81.70;;;;;;5092017;28;20067;-66
2023/06/29 06:48:00;;;;;;;8.18;4.78;;;27.70;82.00;;;;;;5091321;28;20150;-67
2023/06/29 06:51:04;;;;;;;12.98;5.82;;;27.80;82.00;;;;;;5091554;28;20059;-67
2023/06/29 06:54:08;;;;;;;13.20;5.32;;;27.90;82.10;;;;;;5090707;28;20046;-67
2023/06/29 06:57:12;;;;;;;12.07;5.80;;;28.10;80.50;;;;;;5091176;28;20158;-68
2023/06/29 07:00:17;;;;;;;8.32;5.50;;;28.30;81.00;;;;;;5090836;28;20058;-68
2023/06/29 07:03:21;;;;;;;18.15;6.00;;;28.40;80.40;;;;;;5091710;28;20047;-68
2023/06/29 07:06:25;;;;;;;7.97;5.53;;;28.80;79.90;;;;;;5091696;28;20507;-67
2023/06/29 07:09:28;;;;;;;15.02;5.80;;;28.80;79.90;;;;;;5091687;28;20051;-66
2023/06/29 07:12:32;;;;;;;9.43;6.18;;;28.80;79.90;;;;;;5091712;28;20051;-66
2023/06/29 07:15:36;;;;;;;15.73;5.88;;;29.00;79.80;;;;;;5091523;28;20498;-67
2023/06/29 07:19:01;;;;;;;14.35;5.88;;;29.10;79.70;;;;;;5091505;28;20051;-66
2023/06/29 07:22:05;;;;;;;15.93;6.60;;;29.20;79.20;;;;;;5090793;28;20039;-66
2023/06/29 07:25:11;;;;;;;12.88;6.70;;;29.30;78.70;;;;;;5091270;28;20498;-66
2023/06/29 07:28:15;;;;;;;22.98;6.78;;;29.30;79.40;;;;;;5091264;28;20047;-67
2023/06/29 07:31:24;;;;;;;11.38;5.50;;;29.30;79.70;;;;;;5091416;28;20502;-67
2023/06/29 07:34:28;;;;;;;12.70;5.82;;;29.20;78.80;;;;;;5091327;28;20511;-67
2023/06/29 07:37:33;;;;;;;12.40;5.80;;;29.30;78.50;;;;;;5090947;28;20141;-67
2023/06/29 07:40:36;;;;;;;12.07;5.60;;;29.40;77.80;;;;;;5090281;28;20263;-68
2023/06/29 07:43:42;;;;;;;9.93;5.40;;;29.70;78.10;;;;;;5091473;28;20059;-67
2023/06/29 07:46:45;;;;;;;11.13;5.43;;;30.00;77.40;;;;;;5091387;28;20051;-67
2023/06/29 07:49:49;;;;;;;12.45;6.70;;;29.80;76.60;;;;;;5091020;28;20673;-68
2023/06/29 07:52:53;;;;;;;13.30;5.97;;;30.00;76.60;;;;;;5091035;28;20090;-68
2023/06/29 07:55:59;;;;;;;11.98;7.13;;;30.20;76.00;;;;;;5090916;28;20098;-67
2023/06/29 07:59:03;;;;;;;13.07;6.85;;;30.20;77.60;;;;;;5091067;28;20047;-67
2023/06/29 08:02:07;;;;;;;13.00;7.32;;;30.20;77.00;;;;;;5089578;28;20047;-67
2023/06/29 08:05:12;;;;;;;13.00;6.20;;;30.10;77.20;;;;;;5090629;28;20408;-66
2023/06/29 08:08:16;;;;;;;21.60;7.35;;;30.30;75.30;;;;;;5090760;28;20189;-66
2023/06/29 08:11:21;;;;;;;12.43;6.80;;;30.60;74.30;;;;;;5091029;28;20055;-66
2023/06/29 08:14:25;;;;;;;16.13;7.20;;;30.80;74.90;;;;;;5091126;28;20403;-65
2023/06/29 08:17:30;;;;;;;13.77;6.13;;;30.90;74.10;;;;;;5090749;28;20047;-66
2023/06/29 08:20:33;;;;;;;13.15;6.13;;;31.00;73.70;;;;;;5090744;28;20043;-67
2023/06/29 08:23:38;;;;;;;11.60;6.63;;;31.10;72.10;;;;;;5090851;28;20055;-65
2023/06/29 08:26:42;;;;;;;11.95;6.72;;;31.00;72.70;;;;;;5090601;28;20054;-66
2023/06/29 08:29:46;;;;;;;14.20;6.88;;;31.00;71.80;;;;;;5090069;28;20051;-66
2023/06/29 08:32:50;;;;;;;9.68;6.15;;;31.10;71.20;;;;;;5090723;28;20039;-67
2023/06/29 08:35:53;;;;;;;20.73;7.15;;;31.10;70.50;;;;;;5091261;28;20495;-66
2023/06/29 08:38:57;;;;;;;20.20;6.93;;;31.10;70.30;;;;;;5090633;28;20051;-67
2023/06/29 08:42:01;;;;;;;22.38;7.50;;;31.20;69.90;;;;;;5090812;28;20043;-65
2023/06/29 08:45:06;;;;;;;16.92;6.75;;;31.30;71.00;;;;;;5090287;28;20059;-66
2023/06/29 08:48:12;;;;;;;16.23;6.50;;;31.10;71.30;;;;;;5089303;28;20047;-66
2023/06/29 08:51:20;;;;;;;10.38;5.72;;;31.20;69.90;;;;;;5090788;28;20043;-66
2023/06/29 08:54:27;;;;;;;8.55;5.43;;;31.30;69.60;;;;;;5094540;28;20364;-67
2023/06/29 08:57:32;;;;;;;11.68;5.70;;;31.40;68.50;;;;;;5094290;28;20047;-68
2023/06/29 09:00:40;;;;;;;15.38;5.45;;;31.60;68.20;;;;;;5094404;28;20038;-66
2023/06/29 09:03:44;;;;;;;13.57;5.60;;;31.70;66.70;;;;;;5094216;28;20058;-65
2023/06/29 09:06:48;;;;;;;9.38;5.88;;;31.90;67.00;;;;;;5094022;28;20499;-65
2023/06/29 09:09:53;;;;;;;11.27;5.68;;;31.80;67.40;;;;;;5094818;28;20059;-65
2023/06/29 09:12:57;;;;;;;13.77;5.63;;;31.50;67.00;;;;;;5093297;28;20396;-65
2023/06/29 09:16:03;;;;;;;11.93;6.28;;;31.50;67.40;;;;;;5091869;28;20050;-66
2023/06/29 09:19:07;;;;;;;11.05;6.53;;;31.30;67.60;;;;;;5093858;28;20574;-66
2023/06/29 09:22:14;;;;;;;10.63;6.30;;;31.30;66.50;;;;;;5093956;28;20487;-66
2023/06/29 09:25:19;;;;;;;13.00;6.25;;;32.60;65.50;;;;;;5093721;28;20051;-65
2023/06/29 09:28:24;;;;;;;10.43;6.00;;;34.30;63.70;;;;;;5093706;28;20049;-65
2023/06/29 09:31:28;;;;;;;18.40;7.47;;;34.70;62.70;;;;;;5093741;28;20062;-65
2023/06/29 09:34:32;;;;;;;17.02;6.55;;;34.30;62.20;;;;;;5093640;28;20047;-65
2023/06/29 09:37:37;;;;;;;13.55;6.32;;;35.10;61.70;;;;;;5093308;28;20434;-65
2023/06/29 09:40:53;;;;;;;18.77;6.43;;;35.50;61.40;;;;;;5093574;28;20035;-66
2023/06/29 09:43:58;;;;;;;11.75;6.80;;;35.90;60.90;;;;;;5093702;28;20051;-65
2023/06/29 09:47:06;;;;;;;12.45;6.00;;;36.00;60.80;;;;;;5093555;28;20059;-65
2023/06/29 09:50:20;;;;;;;11.75;5.85;;;35.90;60.80;;;;;;5093528;28;20039;-65
2023/06/29 09:53:32;;;;;;;8.68;5.53;;;35.90;60.60;;;;;;5093532;28;20043;-65
2023/06/29 09:56:37;;;;;;;14.73;6.32;;;35.70;59.70;;;;;;5093592;28;20043;-66
2023/06/29 09:59:45;;;;;;;12.23;7.50;;;36.00;60.20;;;;;;5093506;28;20063;-67
2023/06/29 10:02:50;;;;;;;18.77;7.30;;;35.80;60.40;;;;;;5092524;28;20054;-67
2023/06/29 10:06:07;;;;;;;12.43;6.72;;;35.80;60.60;;;;;;5092901;28;20059;-67
2023/06/29 10:09:16;;;;;;;9.07;6.20;;;35.80;60.40;;;;;;5092620;28;20048;-66
2023/06/29 10:12:24;;;;;;;19.63;6.90;;;36.00;60.60;;;;;;5092935;28;20058;-66
2023/06/29 10:15:29;;;;;;;13.52;6.15;;;36.30;60.20;;;;;;5092779;28;20035;-66
2023/06/29 10:18:38;;;;;;;8.70;5.47;;;36.10;59.70;;;;;;5092595;28;20044;-66
2023/06/29 10:21:44;;;;;;;12.45;6.32;;;35.90;60.20;;;;;;5092932;28;20051;-66
2023/06/29 10:25:03;;;;;;;12.45;6.30;;;35.80;60.30;;;;;;5091899;28;20055;-67
2023/06/29 10:28:08;;;;;;;11.23;7.17;;;35.60;60.50;;;;;;5092422;28;20047;-68
2023/06/29 10:31:18;;;;;;;16.38;6.55;;;34.80;62.10;;;;;;5092351;28;20467;-66
2023/06/29 10:34:27;;;;;;;12.63;6.07;;;34.30;62.40;;;;;;5091559;28;20043;-67
2023/06/29 10:37:33;;;;;;;13.63;6.55;;;33.60;62.70;;;;;;5092043;28;20047;-67
2023/06/29 10:40:47;;;;;;;12.57;6.28;;;33.20;64.10;;;;;;5092416;28;20035;-67
2023/06/29 10:43:59;;;;;;;12.65;6.72;;;33.10;64.20;;;;;;5092380;28;20130;-66
2023/06/29 10:47:03;;;;;;;9.88;7.28;;;33.00;64.20;;;;;;5090682;28;20430;-66
2023/06/29 10:50:10;;;;;;;13.43;7.13;;;32.90;63.50;;;;;;5090484;28;20059;-66
2023/06/29 10:53:16;;;;;;;14.60;7.20;;;32.70;64.60;;;;;;5091214;28;20043;-66
2023/06/29 10:56:30;;;;;;;13.18;6.88;;;32.70;65.00;;;;;;5091740;28;20067;-66
2023/06/29 10:59:36;;;;;;;10.32;6.13;;;32.80;65.10;;;;;;5091147;28;20047;-66
2023/06/29 11:02:41;;;;;;;13.52;7.00;;;32.90;65.20;;;;;;5091749;28;20043;-66
2023/06/29 11:05:50;;;;;;;10.82;6.45;;;32.80;64.30;;;;;;5091861;28;20059;-66
2023/06/29 11:08:54;;;;;;;13.35;6.20;;;32.60;64.90;;;;;;5091789;28;20047;-66
2023/06/29 11:11:59;;;;;;;8.75;6.65;;;32.30;64.20;;;;;;5091620;28;20050;-66
2023/06/29 11:15:12;;;;;;;10.45;6.68;;;32.00;65.50;;;;;;5090087;28;20047;-65
2023/06/29 11:18:16;;;;;;;13.52;6.63;;;31.90;65.90;;;;;;5091482;28;20043;-67
2023/06/29 11:21:21;;;;;;;14.50;6.10;;;31.90;65.90;;;;;;5091758;28;20043;-66
2023/06/29 11:24:25;;;;;;;10.85;6.60;;;31.90;65.80;;;;;;5091562;28;20503;-67
2023/06/29 11:27:29;;;;;;;10.55;5.63;;;31.90;66.40;;;;;;5091243;28;20457;-67
2023/06/29 11:30:39;;;;;;;11.95;6.57;;;32.00;66.20;;;;;;5091353;28;20051;-67
2023/06/29 11:33:47;;;;;;;10.13;6.23;;;32.10;64.50;;;;;;5091280;28;20039;-67
2023/06/29 11:36:51;;;;;;;9.98;6.28;;;32.00;65.10;;;;;;5091384;28;20043;-66
2023/06/29 11:39:55;;;;;;;8.27;6.20;;;32.00;64.20;;;;;;5091264;28;20050;-66
2023/06/29 11:42:59;;;;;;;14.77;6.68;;;32.10;64.30;;;;;;5091480;28;20051;-65
2023/06/29 11:46:04;;;;;;;10.15;6.63;;;32.10;64.90;;;;;;5091141;28;20499;-65
2023/06/29 11:49:08;;;;;;;11.93;6.47;;;32.40;65.00;;;;;;5091352;28;20051;-65
2023/06/29 11:52:12;;;;;;;11.40;7.07;;;33.40;63.00;;;;;;5090979;28;20055;-65
2023/06/29 11:55:17;;;;;;;9.98;6.20;;;34.60;61.50;;;;;;5090995;28;20047;-65
2023/06/29 11:58:21;;;;;;;11.52;5.90;;;35.30;60.50;;;;;;5090917;28;20047;-65
2023/06/29 12:01:25;;;;;;;16.83;6.53;;;35.50;60.50;;;;;;5091277;28;20391;-66
2023/06/29 12:04:29;;;;;;;12.60;6.47;;;34.90;61.40;;;;;;5091215;28;20050;-66
2023/06/29 12:07:39;;;;;;;11.02;6.43;;;34.40;60.70;;;;;;5090973;28;20043;-67
2023/06/29 12:10:43;;;;;;;12.45;7.35;;;34.60;60.60;;;;;;5091101;28;20070;-66
2023/06/29 12:13:51;;;;;;;10.13;6.35;;;34.70;59.30;;;;;;5090613;28;20047;-67
2023/06/29 12:16:57;;;;;;;10.32;6.82;;;35.30;60.00;;;;;;5090893;28;20119;-66
2023/06/29 12:20:01;;;;;;;11.32;7.68;;;35.90;59.90;;;;;;5090818;28;20047;-66
2023/06/29 12:23:05;;;;;;;8.57;7.28;;;36.00;59.60;;;;;;5090981;28;20043;-66
2023/06/29 12:26:09;;;;;;;15.02;7.57;;;35.10;60.60;;;;;;5090917;28;20630;-66
2023/06/29 12:29:13;;;;;;;11.75;7.70;;;34.30;60.70;;;;;;5094832;28;20050;-66
2023/06/29 12:32:17;;;;;;;10.05;7.47;;;33.90;62.10;;;;;;5095204;28;20055;-66
2023/06/29 12:35:21;;;;;;;16.35;7.50;;;33.40;62.10;;;;;;5094690;28;20039;-66
2023/06/29 12:38:25;;;;;;;12.75;7.22;;;32.90;62.70;;;;;;5094338;28;20510;-67
2023/06/29 12:41:29;;;;;;;11.13;7.35;;;32.70;62.60;;;;;;5094538;28;20510;-65
2023/06/29 12:44:33;;;;;;;11.18;7.72;;;32.50;63.30;;;;;;5094593;28;20067;-66
2023/06/29 12:47:37;;;;;;;12.32;7.75;;;32.40;64.10;;;;;;5094604;28;20502;-65
2023/06/29 12:50:42;;;;;;;12.10;6.85;;;32.40;63.90;;;;;;5094501;28;20426;-66
2023/06/29 12:53:46;;;;;;;11.48;7.50;;;32.40;64.70;;;;;;5094734;28;20503;-67
2023/06/29 12:56:49;;;;;;;13.85;8.32;;;32.40;65.60;;;;;;5094374;28;20039;-67
2023/06/29 12:59:55;;;;;;;10.98;8.20;;;32.40;69.90;;;;;;5094456;28;20043;-67
2023/06/29 13:02:59;;;;;;;16.75;7.88;;;32.40;70.50;;;;;;5094343;28;20598;-67
2023/06/29 13:06:03;;;;;;;11.93;7.72;;;32.40;70.80;;;;;;5094011;28;20454;-67
2023/06/29 13:09:07;;;;;;;11.13;7.25;;;32.30;70.90;;;;;;5094001;28;20047;-67
2023/06/29 13:12:20;;;;;;;15.02;7.75;;;32.20;70.30;;;;;;5093905;28;20050;-67
2023/06/29 13:15:23;;;;;;;13.30;7.70;;;32.10;73.10;;;;;;5094203;28;20043;-68
2023/06/29 13:18:27;;;;;;;11.60;7.13;;;32.10;73.30;;;;;;5093899;28;20054;-68
2023/06/29 13:21:32;;;;;;;20.20;7.18;;;32.20;73.50;;;;;;5093853;28;20043;-68
2023/06/29 13:24:36;;;;;;;14.02;7.00;;;32.30;73.40;;;;;;5093585;28;20063;-68
2023/06/29 13:27:42;;;;;;;20.30;7.53;;;32.40;73.60;;;;;;5093490;28;20042;-69
2023/06/29 13:30:46;;;;;;;11.23;6.90;;;32.40;73.70;;;;;;5093389;28;20419;-67
2023/06/29 13:33:50;;;;;;;9.93;6.75;;;32.40;73.60;;;;;;5093512;28;20039;-67
2023/06/29 13:36:55;;;;;;;15.13;7.13;;;32.40;73.10;;;;;;5093564;28;20055;-68
2023/06/29 13:39:58;;;;;;;10.23;6.40;;;32.30;73.40;;;;;;5093426;28;20055;-67
2023/06/29 13:43:02;;;;;;;9.43;6.78;;;32.30;73.60;;;;;;5093858;28;20058;-67
2023/06/29 13:46:06;;;;;;;9.18;6.13;;;32.30;73.50;;;;;;5093344;28;20071;-67
2023/06/29 13:49:10;;;;;;;12.48;7.00;;;32.30;73.90;;;;;;5093420;28;20047;-68
2023/06/29 13:52:14;;;;;;;9.50;6.68;;;32.30;74.00;;;;;;5093440;28;20419;-67
2023/06/29 13:55:18;;;;;;;8.95;6.70;;;32.40;73.40;;;;;;5093271;28;20047;-67
2023/06/29 13:58:22;;;;;;;14.25;6.93;;;32.40;73.90;;;;;;5093320;28;20153;-68
2023/06/29 14:01:26;;;;;;;9.73;6.22;;;32.30;73.90;;;;;;5093365;28;20071;-67
2023/06/29 14:04:30;;;;;;;13.75;7.50;;;32.40;74.50;;;;;;5092930;28;20047;-67
2023/06/29 14:07:34;;;;;;;26.67;8.20;;;32.30;74.60;;;;;;5092057;28;20055;-68
2023/06/29 14:10:38;;;;;;;10.05;6.93;;;32.30;74.80;;;;;;5092954;28;20494;-67
2023/06/29 14:13:42;;;;;;;9.50;6.45;;;32.30;74.20;;;;;;5092766;28;20059;-67
2023/06/29 14:16:46;;;;;;;22.42;7.75;;;32.20;74.50;;;;;;5092484;28;20055;-67
2023/06/29 14:19:51;;;;;;;10.80;7.13;;;32.20;74.20;;;;;;5092649;28;20063;-67
2023/06/29 14:22:56;;;;;;;13.45;6.97;;;32.10;74.40;;;;;;5092718;28;20039;-67
2023/06/29 14:26:01;;;;;;;27.27;8.40;;;32.10;74.60;;;;;;5092431;28;20055;-67
2023/06/29 14:29:05;;;;;;;14.48;7.10;;;32.10;75.70;;;;;;5092480;28;20054;-67
2023/06/29 14:32:08;;;;;;;19.02;7.88;;;32.70;73.50;;;;;;5091654;28;20070;-67
2023/06/29 14:35:12;;;;;;;14.13;7.10;;;33.60;73.10;;;;;;5092397;28;20051;-66
2023/06/29 14:38:17;;;;;;;17.50;7.47;;;34.70;71.80;;;;;;5091173;28;20523;-67
2023/06/29 14:41:21;;;;;;;17.70;6.82;;;35.00;70.90;;;;;;5092178;28;20039;-67
2023/06/29 14:44:25;;;;;;;15.70;6.75;;;35.10;70.60;;;;;;5092054;28;20051;-68
2023/06/29 14:47:29;;;;;;;18.98;7.55;;;35.00;69.90;;;;;;5092134;28;20047;-68
2023/06/29 14:50:33;;;;;;;16.52;6.95;;;35.00;70.80;;;;;;5091460;28;20149;-66
2023/06/29 14:53:37;;;;;;;12.13;6.97;;;35.00;71.70;;;;;;5091133;28;20047;-66
2023/06/29 14:56:41;;;;;;;19.65;7.20;;;34.90;71.60;;;;;;5090172;28;20515;-66
2023/06/29 14:59:45;;;;;;;13.00;6.82;;;34.80;71.10;;;;;;5089995;28;20047;-67
2023/06/29 15:02:49;;;;;;;17.08;7.13;;;34.80;72.20;;;;;;5090155;28;20062;-67
2023/06/29 15:05:53;;;;;;;10.10;6.88;;;34.80;71.60;;;;;;5090784;28;20066;-67
2023/06/29 15:08:57;;;;;;;31.00;8.60;;;34.50;71.60;;;;;;5090952;28;20046;-67
2023/06/29 15:12:03;;;;;;;25.13;8.43;;;34.50;72.30;;;;;;5091173;28;20047;-67
2023/06/29 15:15:08;;;;;;;19.00;7.63;;;34.50;71.50;;;;;;5091197;28;20515;-68
2023/06/29 15:18:12;;;;;;;16.63;6.95;;;34.30;72.80;;;;;;5091393;28;20491;-68
2023/06/29 15:21:17;;;;;;;17.42;7.22;;;34.40;73.50;;;;;;5091455;28;20051;-67
2023/06/29 15:24:21;;;;;;;21.77;6.88;;;34.50;72.40;;;;;;5091216;28;20043;-68
2023/06/29 15:27:25;;;;;;;15.80;7.07;;;34.40;72.20;;;;;;5091091;28;20113;-67
2023/06/29 15:30:29;;;;;;;21.05;7.28;;;34.70;72.00;;;;;;5091484;28;20051;-67
2023/06/29 15:33:33;;;;;;;21.10;7.72;;;34.60;71.60;;;;;;5090796;28;20486;-66
2023/06/29 15:36:37;;;;;;;19.98;7.18;;;34.40;72.10;;;;;;5091200;28;20372;-67
2023/06/29 15:39:41;;;;;;;12.15;6.88;;;34.60;72.10;;;;;;5091435;28;20158;-67
2023/06/29 15:42:45;;;;;;;12.45;6.82;;;34.50;71.80;;;;;;5091128;28;20072;-67
2023/06/29 15:45:49;;;;;;;22.38;7.00;;;33.80;74.30;;;;;;5091011;28;20055;-67
2023/06/29 15:48:57;;;;;;;17.83;7.38;;;33.20;76.10;;;;;;5090943;28;20396;-68